Time;durP1;ratioP1;P1;durP2;ratioP2;P2;SDS_P1;SDS_P2;PMS_P1;PMS_P2;Temp;Humidity;BMP_temperature;BMP_pressure;BME280_temperature;BME280_humidity;BME280_pressure;Samples;Min_cycle;Max_cycle;Signal;HPM_P1;HPM_P2
2023/06/26 00:00:08;;;;;;;5.38;4.75;;;;;;;;;;501506;28;1004;-71
2023/06/26 00:00:24;;;;;;;6.05;4.82;;;;;;;;;;503371;28;1516;-71
2023/06/26 00:00:40;;;;;;;6.68;4.90;;;;;;;;;;506802;28;1287;-71
2023/06/26 00:00:56;;;;;;;5.57;5.00;;;;;;;;;;505083;28;1031;-71
2023/06/26 00:01:11;;;;;;;5.50;5.00;;;;;;;;;;503420;28;1938;-71
2023/06/26 00:01:33;;;;;;;5.50;5.00;;;;;;;;;;506212;28;1292;-71
2023/06/26 00:01:49;;;;;;;5.72;5.00;;;;;;;;;;506691;28;1320;-72
2023/06/26 00:02:05;;;;;;;5.80;5.10;;;;;;;;;;504945;28;1258;-71
2023/06/26 00:02:21;;;;;;;5.50;5.00;;;;;;;;;;506044;28;1385;-71
2023/06/26 00:02:37;;;;;;;5.73;5.13;;;;;;;;;;502844;28;1245;-71
2023/06/26 00:02:53;;;;;;;5.80;5.10;;;;;;;;;;503360;28;1121;-71
2023/06/26 00:03:09;;;;;;;5.43;4.93;;;;;;;;;;504569;28;1487;-71
2023/06/26 00:03:24;;;;;;;5.38;4.88;;;;;;;;;;503112;28;1691;-71
2023/06/26 00:03:40;;;;;;;5.10;4.70;;;;;;;;;;505299;28;1335;-71
2023/06/26 00:03:56;;;;;;;5.45;4.70;;;;;;;;;;506923;28;1496;-71
2023/06/26 00:04:14;;;;;;;6.13;4.90;;;;;;;;;;506608;28;1069;-71
2023/06/26 00:04:29;;;;;;;5.60;4.93;;;;;;;;;;506531;28;953;-71
2023/06/26 00:04:45;;;;;;;5.25;4.75;;;;;;;;;;504685;28;1455;-71
2023/06/26 00:05:04;;;;;;;5.45;4.95;;;;;;;;;;504490;28;1118;-71
2023/06/26 00:05:20;;;;;;;5.65;5.07;;;;;;;;;;503569;28;1510;-71
2023/06/26 00:05:36;;;;;;;5.63;5.03;;;;;;;;;;503477;28;1285;-72
2023/06/26 00:05:52;;;;;;;6.47;5.20;;;;;;;;;;503513;28;1348;-71
2023/06/26 00:06:08;;;;;;;6.18;5.13;;;;;;;;;;503584;28;1345;-71
2023/06/26 00:06:25;;;;;;;5.38;4.75;;;;;;;;;;503519;28;1475;-71
2023/06/26 00:06:41;;;;;;;5.18;4.65;;;;;;;;;;503030;28;1525;-71
2023/06/26 00:06:57;;;;;;;5.47;4.97;;;;;;;;;;501130;28;1393;-71
2023/06/26 00:07:13;;;;;;;5.47;4.95;;;;;;;;;;501690;28;1034;-71
2023/06/26 00:07:30;;;;;;;8.40;5.07;;;;;;;;;;501782;28;1152;-71
2023/06/26 00:07:46;;;;;;;7.30;5.15;;;;;;;;;;503805;28;1657;-71
2023/06/26 00:08:02;;;;;;;5.63;5.10;;;;;;;;;;503387;28;1378;-71
2023/06/26 00:08:17;;;;;;;5.50;5.00;;;;;;;;;;502923;28;1409;-71
2023/06/26 00:08:33;;;;;;;5.50;5.00;;;;;;;;;;505237;28;1372;-71
2023/06/26 00:08:49;;;;;;;5.50;5.00;;;;;;;;;;506822;28;1362;-71
2023/06/26 00:09:05;;;;;;;5.50;5.00;;;;;;;;;;506524;28;1351;-71
2023/06/26 00:09:21;;;;;;;5.50;5.00;;;;;;;;;;505738;28;1432;-71
2023/06/26 00:09:37;;;;;;;5.45;4.95;;;;;;;;;;505891;28;1883;-71
2023/06/26 00:09:53;;;;;;;5.38;4.88;;;;;;;;;;505516;28;1002;-72
2023/06/26 00:10:09;;;;;;;5.30;4.80;;;;;;;;;;503963;28;1346;-71
2023/06/26 00:10:24;;;;;;;5.43;4.85;;;;;;;;;;505739;28;1366;-72
2023/06/26 00:10:40;;;;;;;5.50;4.90;;;;;;;;;;502770;28;1267;-71
2023/06/26 00:10:56;;;;;;;5.43;4.93;;;;;;;;;;505896;28;1541;-71
2023/06/26 00:11:11;;;;;;;5.45;4.95;;;;;;;;;;504517;28;1441;-70
2023/06/26 00:11:30;;;;;;;5.35;4.85;;;;;;;;;;506228;28;1256;-71
2023/06/26 00:11:46;;;;;;;5.60;4.82;;;;;;;;;;504378;28;1315;-71
2023/06/26 00:12:02;;;;;;;6.18;5.10;;;;;;;;;;504494;28;1394;-71
2023/06/26 00:12:18;;;;;;;5.50;5.00;;;;;;;;;;506737;28;1379;-71
2023/06/26 00:12:34;;;;;;;5.20;4.80;;;;;;;;;;506289;28;1374;-71
2023/06/26 00:12:50;;;;;;;5.30;4.82;;;;;;;;;;505709;28;1355;-71
2023/06/26 00:13:06;;;;;;;5.60;5.10;;;;;;;;;;504619;28;1421;-71
2023/06/26 00:13:23;;;;;;;5.60;5.10;;;;;;;;;;501338;28;1306;-71
2023/06/26 00:13:39;;;;;;;6.07;5.10;;;;;;;;;;504164;28;1507;-71
2023/06/26 00:13:55;;;;;;;6.28;5.00;;;;;;;;;;501495;28;1199;-71
2023/06/26 00:14:11;;;;;;;5.30;4.80;;;;;;;;;;505242;28;1479;-71
2023/06/26 00:14:26;;;;;;;5.57;4.97;;;;;;;;;;504260;28;1483;-71
2023/06/26 00:14:42;;;;;;;5.60;4.97;;;;;;;;;;504283;28;1353;-70
2023/06/26 00:14:59;;;;;;;5.20;4.70;;;;;;;;;;506701;28;1383;-71
2023/06/26 00:15:14;;;;;;;5.85;4.90;;;;;;;;;;509296;28;1593;-71
2023/06/26 00:15:51;;;;;;;5.63;5.00;;;;;;;;;;504926;28;1211;-72
2023/06/26 00:16:06;;;;;;;5.68;4.97;;;;;;;;;;504604;28;1459;-71
2023/06/26 00:16:22;;;;;;;5.40;4.90;;;;;;;;;;506918;28;1209;-71
2023/06/26 00:16:38;;;;;;;5.50;5.00;;;;;;;;;;506421;28;1070;-71
2023/06/26 00:16:53;;;;;;;5.72;5.22;;;;;;;;;;505023;28;1445;-71
2023/06/26 00:17:09;;;;;;;5.63;5.13;;;;;;;;;;505402;28;1537;-71
2023/06/26 00:17:25;;;;;;;5.78;5.18;;;;;;;;;;503639;28;1288;-70
2023/06/26 00:17:41;;;;;;;5.90;5.30;;;;;;;;;;501043;28;1418;-71
2023/06/26 00:17:58;;;;;;;5.88;5.30;;;;;;;;;;501601;28;1036;-71
2023/06/26 00:18:14;;;;;;;6.43;4.97;;;;;;;;;;503660;28;1271;-71
2023/06/26 00:18:30;;;;;;;6.18;5.03;;;;;;;;;;504631;28;1906;-71
2023/06/26 00:18:46;;;;;;;5.65;5.05;;;;;;;;;;504226;28;1323;-71
2023/06/26 00:19:02;;;;;;;5.60;5.10;;;;;;;;;;504131;28;940;-71
2023/06/26 00:19:18;;;;;;;5.65;5.15;;;;;;;;;;505267;28;1283;-72
2023/06/26 00:19:34;;;;;;;5.50;5.00;;;;;;;;;;505940;28;1353;-71
2023/06/26 00:19:50;;;;;;;5.93;5.03;;;;;;;;;;504394;28;1651;-71
2023/06/26 00:20:06;;;;;;;5.65;5.03;;;;;;;;;;505510;28;1074;-71
2023/06/26 00:20:25;;;;;;;5.50;5.00;;;;;;;;;;506790;28;1055;-71
2023/06/26 00:20:41;;;;;;;5.63;4.95;;;;;;;;;;505777;28;1331;-71
2023/06/26 00:20:57;;;;;;;6.47;5.03;;;;;;;;;;506682;28;1581;-71
2023/06/26 00:21:13;;;;;;;5.83;5.00;;;;;;;;;;506043;28;1951;-71
2023/06/26 00:21:28;;;;;;;5.20;4.72;;;;;;;;;;504569;28;1408;-71
2023/06/26 00:21:47;;;;;;;5.25;4.80;;;;;;;;;;507172;28;1239;-71
2023/06/26 00:22:03;;;;;;;5.38;4.85;;;;;;;;;;506084;28;1436;-71
2023/06/26 00:22:20;;;;;;;5.47;4.90;;;;;;;;;;504336;28;1232;-71
2023/06/26 00:22:40;;;;;;;5.65;5.00;;;;;;;;;;505863;28;1225;-71
2023/06/26 00:22:58;;;;;;;5.88;5.15;;;;;;;;;;505314;28;1373;-71
2023/06/26 00:23:17;;;;;;;6.00;5.13;;;;;;;;;;505270;28;886;-71
2023/06/26 00:23:36;;;;;;;5.82;5.13;;;;;;;;;;506696;28;1048;-71
2023/06/26 00:23:52;;;;;;;6.03;5.20;;;;;;;;;;506845;28;1014;-71
2023/06/26 00:24:08;;;;;;;6.00;5.18;;;;;;;;;;506484;28;899;-71
2023/06/26 00:24:23;;;;;;;5.30;4.80;;;;;;;;;;504847;28;1489;-71
2023/06/26 00:24:39;;;;;;;5.30;4.80;;;;;;;;;;506335;28;1089;-71
2023/06/26 00:24:55;;;;;;;5.68;5.18;;;;;;;;;;506814;28;1339;-71
2023/06/26 00:25:11;;;;;;;5.80;5.30;;;;;;;;;;506370;28;1042;-71
2023/06/26 00:25:27;;;;;;;5.53;5.03;;;;;;;;;;504188;28;1373;-71
2023/06/26 00:25:44;;;;;;;5.22;4.72;;;;;;;;;;504581;28;1366;-71
2023/06/26 00:26:01;;;;;;;5.65;4.82;;;;;;;;;;503982;28;1402;-71
2023/06/26 00:26:16;;;;;;;6.53;5.00;;;;;;;;;;504507;28;914;-71
2023/06/26 00:26:32;;;;;;;6.18;4.93;;;;;;;;;;505379;28;1347;-72
2023/06/26 00:26:49;;;;;;;5.38;4.88;;;;;;;;;;506480;28;978;-70
2023/06/26 00:27:05;;;;;;;5.47;4.97;;;;;;;;;;506723;28;917;-71
2023/06/26 00:27:21;;;;;;;5.53;5.03;;;;;;;;;;506722;28;1287;-71
2023/06/26 00:27:37;;;;;;;5.43;4.80;;;;;;;;;;507520;28;1143;-71
2023/06/26 00:27:53;;;;;;;5.40;4.78;;;;;;;;;;507881;28;1546;-71
2023/06/26 00:28:09;;;;;;;5.40;4.90;;;;;;;;;;507219;28;1292;-71
2023/06/26 00:28:24;;;;;;;5.78;5.03;;;;;;;;;;504700;28;1628;-71
2023/06/26 00:28:43;;;;;;;5.50;4.80;;;;;;;;;;503811;28;1263;-72
2023/06/26 00:28:59;;;;;;;5.55;5.00;;;;;;;;;;502797;28;1137;-71
2023/06/26 00:29:16;;;;;;;5.60;5.10;;;;;;;;;;504420;28;1399;-71
2023/06/26 00:29:32;;;;;;;5.53;5.03;;;;;;;;;;505213;28;1643;-71
2023/06/26 00:29:48;;;;;;;5.30;4.80;;;;;;;;;;504583;28;1061;-71
2023/06/26 00:30:04;;;;;;;5.47;4.85;;;;;;;;;;504713;28;1308;-71
2023/06/26 00:30:23;;;;;;;5.95;5.18;;;;;;;;;;505091;28;1447;-71
2023/06/26 00:30:42;;;;;;;5.50;5.00;;;;;;;;;;505584;28;1532;-72
2023/06/26 00:31:10;;;;;;;6.00;5.20;;;;;;;;;;506828;28;1564;-71
2023/06/26 00:31:26;;;;;;;6.47;5.38;;;;;;;;;;504986;28;1462;-71
2023/06/26 00:31:42;;;;;;;6.00;5.40;;;;;;;;;;503424;28;1423;-72
2023/06/26 00:31:58;;;;;;;5.70;5.20;;;;;;;;;;502680;28;1445;-71
2023/06/26 00:32:14;;;;;;;5.55;4.97;;;;;;;;;;502955;28;1621;-71
2023/06/26 00:32:31;;;;;;;5.70;5.10;;;;;;;;;;502443;28;1581;-71
2023/06/26 00:32:47;;;;;;;5.63;5.13;;;;;;;;;;501856;28;1426;-71
2023/06/26 00:33:09;;;;;;;5.43;4.93;;;;;;;;;;502647;28;1075;-72
2023/06/26 00:33:29;;;;;;;5.00;4.57;;;;;;;;;;504141;28;1414;-71
2023/06/26 00:33:45;;;;;;;5.30;4.80;;;;;;;;;;505414;28;1369;-70
2023/06/26 00:34:01;;;;;;;5.53;4.95;;;;;;;;;;505545;28;1412;-71
2023/06/26 00:34:19;;;;;;;5.70;5.10;;;;;;;;;;507230;28;1787;-71
2023/06/26 00:34:34;;;;;;;5.55;5.00;;;;;;;;;;507629;28;1481;-71
2023/06/26 00:34:53;;;;;;;6.25;5.10;;;;;;;;;;505217;28;1437;-71
2023/06/26 00:35:09;;;;;;;5.75;5.10;;;;;;;;;;504905;28;1196;-70
2023/06/26 00:35:25;;;;;;;5.50;5.00;;;;;;;;;;504459;28;1631;-71
2023/06/26 00:35:42;;;;;;;5.50;5.00;;;;;;;;;;506109;28;1292;-70
2023/06/26 00:36:01;;;;;;;5.70;5.20;;;;;;;;;;505695;28;907;-71
2023/06/26 00:36:18;;;;;;;5.60;5.10;;;;;;;;;;503280;28;1498;-71
2023/06/26 00:36:37;;;;;;;5.78;4.90;;;;;;;;;;504165;28;1065;-74
2023/06/26 00:36:56;;;;;;;6.07;5.03;;;;;;;;;;502441;28;1053;-75
2023/06/26 00:37:12;;;;;;;5.90;5.30;;;;;;;;;;506869;28;1497;-74
2023/06/26 00:37:31;;;;;;;5.90;5.00;;;;;;;;;;509042;28;1455;-74
2023/06/26 00:37:56;;;;;;;6.82;4.90;;;;;;;;;;508316;28;1250;-75
2023/06/26 00:38:13;;;;;;;5.65;5.07;;;;;;;;;;508805;28;1419;-75
2023/06/26 00:38:32;;;;;;;6.07;5.10;;;;;;;;;;509001;28;986;-75
2023/06/26 00:38:51;;;;;;;6.30;5.20;;;;;;;;;;508291;28;973;-75
2023/06/26 00:39:10;;;;;;;5.93;5.05;;;;;;;;;;509740;28;1228;-75
2023/06/26 00:39:29;;;;;;;5.85;5.13;;;;;;;;;;506913;28;1125;-74
2023/06/26 00:39:45;;;;;;;5.85;5.25;;;;;;;;;;507384;28;1292;-75
2023/06/26 00:40:08;;;;;;;5.55;5.03;;;;;;;;;;506038;28;1492;-74
2023/06/26 00:40:45;;;;;;;6.18;5.25;;;;;;;;;;506254;28;1357;-74
2023/06/26 00:41:05;;;;;;;5.47;4.97;;;;;;;;;;505665;28;1208;-75
2023/06/26 00:41:21;;;;;;;5.45;4.90;;;;;;;;;;506625;28;2025;-75
2023/06/26 00:41:38;;;;;;;5.90;5.30;;;;;;;;;;506804;28;1407;-74
2023/06/26 00:41:55;;;;;;;5.95;5.35;;;;;;;;;;506795;28;1503;-75
2023/06/26 00:42:10;;;;;;;5.88;5.30;;;;;;;;;;505048;28;1565;-73
2023/06/26 00:42:29;;;;;;;5.80;5.30;;;;;;;;;;507033;28;1142;-74
2023/06/26 00:42:49;;;;;;;5.22;4.72;;;;;;;;;;505292;28;1514;-74
2023/06/26 00:43:05;;;;;;;5.30;4.70;;;;;;;;;;506996;28;1230;-74
2023/06/26 00:43:21;;;;;;;5.35;4.65;;;;;;;;;;505386;28;1403;-74
2023/06/26 00:43:57;;;;;;;5.60;4.97;;;;;;;;;;504830;28;1597;-74
2023/06/26 00:44:19;;;;;;;5.28;4.78;;;;;;;;;;504178;28;1154;-76
2023/06/26 00:44:36;;;;;;;6.72;5.18;;;;;;;;;;504595;28;1444;-75
2023/06/26 00:45:13;;;;;;;6.68;5.53;;;;;;;;;;506072;28;1206;-74
2023/06/26 00:45:40;;;;;;;5.97;5.40;;;;;;;;;;506151;28;1502;-74
2023/06/26 00:45:59;;;;;;;7.25;5.30;;;;;;;;;;506768;28;1168;-74
2023/06/26 00:46:19;;;;;;;5.72;5.13;;;;;;;;;;505667;28;1395;-74
2023/06/26 00:46:36;;;;;;;5.97;5.23;;;;;;;;;;507823;28;956;-75
2023/06/26 00:46:52;;;;;;;6.00;5.40;;;;;;;;;;506387;28;1289;-75
2023/06/26 00:47:13;;;;;;;5.80;5.30;;;;;;;;;;506138;28;1196;-74
2023/06/26 00:47:51;;;;;;;5.70;5.10;;;;;;;;;;505273;28;1438;-75
2023/06/26 00:48:10;;;;;;;6.07;5.45;;;;;;;;;;504332;28;1478;-74
2023/06/26 00:48:36;;;;;;;;;;;;;;;;;;;;;
2023/06/26 00:49:08;;;;;;;6.18;5.50;;;;;;;;;;506145;28;1083;-75
2023/06/26 00:49:26;;;;;;;5.65;5.15;;;;;;;;;;508175;28;1638;-74
2023/06/26 00:49:52;;;;;;;5.57;5.07;;;;;;;;;;507496;28;1290;-75
2023/06/26 00:50:19;;;;;;;;;;;;;;;;;;;;;
2023/06/26 00:50:48;;;;;;;6.63;5.18;;;;;;;;;;508994;28;1036;-75
2023/06/26 00:51:05;;;;;;;5.53;5.03;;;;;;;;;;507557;28;1220;-74
2023/06/26 00:51:24;;;;;;;5.75;4.80;;;;;;;;;;507739;28;1307;-75
2023/06/26 00:51:44;;;;;;;6.40;4.90;;;;;;;;;;506518;28;1363;-75
2023/06/26 00:52:03;;;;;;;5.72;5.20;;;;;;;;;;508721;28;1236;-75
2023/06/26 00:52:25;;;;;;;5.50;5.00;;;;;;;;;;508123;28;1505;-73
2023/06/26 00:52:47;;;;;;;5.50;5.00;;;;;;;;;;507984;28;1319;-74
2023/06/26 00:53:02;;;;;;;5.55;5.00;;;;;;;;;;508172;28;1116;-74
2023/06/26 00:53:19;;;;;;;5.85;5.15;;;;;;;;;;508842;28;1403;-74
2023/06/26 00:53:35;;;;;;;5.65;5.10;;;;;;;;;;507660;28;1264;-74
2023/06/26 00:54:00;;;;;;;5.68;5.10;;;;;;;;;;507370;28;1578;-74
2023/06/26 00:54:20;;;;;;;5.53;5.00;;;;;;;;;;506141;28;1183;-74
2023/06/26 00:54:36;;;;;;;6.05;5.10;;;;;;;;;;504505;28;1573;-75
2023/06/26 00:54:55;;;;;;;6.20;5.20;;;;;;;;;;503818;28;1503;-74
2023/06/26 00:55:13;;;;;;;5.75;5.13;;;;;;;;;;505781;28;1286;-75
2023/06/26 00:55:29;;;;;;;6.10;5.28;;;;;;;;;;506854;28;1251;-74
2023/06/26 00:55:46;;;;;;;6.60;5.13;;;;;;;;;;507681;28;946;-74
2023/06/26 00:56:07;;;;;;;6.38;5.10;;;;;;;;;;505071;28;1298;-75
2023/06/26 00:56:23;;;;;;;5.60;5.07;;;;;;;;;;506580;28;1363;-74
2023/06/26 00:56:43;;;;;;;6.15;5.30;;;;;;;;;;508710;28;1540;-75
2023/06/26 00:56:59;;;;;;;5.88;5.18;;;;;;;;;;509255;28;1105;-74
2023/06/26 00:57:14;;;;;;;5.90;5.10;;;;;;;;;;504384;28;1195;-77
2023/06/26 00:57:31;;;;;;;6.13;5.40;;;;;;;;;;504658;28;1550;-74
2023/06/26 00:57:48;;;;;;;6.18;5.57;;;;;;;;;;505507;28;1665;-74
2023/06/26 00:58:05;;;;;;;5.80;5.30;;;;;;;;;;507278;28;1373;-74
2023/06/26 00:58:24;;;;;;;5.60;5.10;;;;;;;;;;507412;28;1065;-74
2023/06/26 00:58:47;;;;;;;5.85;5.20;;;;;;;;;;504816;28;1299;-74
2023/06/26 00:59:07;;;;;;;5.97;5.35;;;;;;;;;;503567;28;896;-74
2023/06/26 00:59:23;;;;;;;5.70;5.20;;;;;;;;;;505486;28;1507;-74
2023/06/26 00:59:40;;;;;;;5.57;4.97;;;;;;;;;;505981;28;1322;-73
2023/06/26 01:00:03;;;;;;;5.70;5.07;;;;;;;;;;504646;28;1469;-74
2023/06/26 01:00:20;;;;;;;5.90;5.30;;;;;;;;;;505580;28;1074;-74
2023/06/26 01:00:45;;;;;;;5.97;5.38;;;;;;;;;;505001;28;1487;-75
2023/06/26 01:01:03;;;;;;;6.15;5.10;;;;;;;;;;507713;28;1407;-75
2023/06/26 01:01:21;;;;;;;5.88;5.13;;;;;;;;;;507953;28;1983;-74
2023/06/26 01:01:37;;;;;;;5.53;5.03;;;;;;;;;;507396;28;1500;-75
2023/06/26 01:02:15;;;;;;;5.65;5.05;;;;;;;;;;509416;28;1571;-74
2023/06/26 01:02:38;;;;;;;5.68;4.90;;;;;;;;;;508027;28;1253;-75
2023/06/26 01:02:58;;;;;;;5.30;4.80;;;;;;;;;;506426;28;1335;-73
2023/06/26 01:03:35;;;;;;;5.40;4.90;;;;;;;;;;503934;28;1314;-75
2023/06/26 01:03:53;;;;;;;6.30;5.20;;;;;;;;;;504789;28;1414;-74
2023/06/26 01:04:18;;;;;;;6.00;5.40;;;;;;;;;;505040;28;1422;-76
2023/06/26 01:04:46;;;;;;;5.38;4.88;;;;;;;;;;505572;28;1367;-74
2023/06/26 01:05:06;;;;;;;5.60;5.10;;;;;;;;;;508331;28;1430;-74
2023/06/26 01:05:22;;;;;;;5.80;5.20;;;;;;;;;;507870;28;1478;-75
2023/06/26 01:05:38;;;;;;;5.85;5.35;;;;;;;;;;506346;28;1318;-73
2023/06/26 01:06:02;;;;;;;5.90;5.30;;;;;;;;;;506046;28;1377;-75
2023/06/26 01:06:24;;;;;;;7.10;5.20;;;;;;;;;;502718;28;1531;-75
2023/06/26 01:07:00;;;;;;;5.85;5.18;;;;;;;;;;504696;28;1419;-75
2023/06/26 01:07:19;;;;;;;5.68;4.90;;;;;;;;;;504549;28;1236;-74
2023/06/26 01:07:43;;;;;;;5.57;5.07;;;;;;;;;;506492;28;903;-75
2023/06/26 01:08:00;;;;;;;5.50;5.00;;;;;;;;;;509421;28;1584;-74
2023/06/26 01:08:21;;;;;;;6.65;5.28;;;;;;;;;;508215;28;1446;-75
2023/06/26 01:08:41;;;;;;;6.95;5.30;;;;;;;;;;506769;28;1471;-75
2023/06/26 01:09:02;;;;;;;5.70;5.10;;;;;;;;;;505587;28;1311;-75
2023/06/26 01:09:32;;;;;;;;;;;;;;;;;;;;;
2023/06/26 01:10:12;;;;;;;6.00;5.40;;;;;;;;;;508400;28;1104;-75
2023/06/26 01:10:28;;;;;;;5.63;5.13;;;;;;;;;;507080;28;1397;-76
2023/06/26 01:10:48;;;;;;;5.82;5.28;;;;;;;;;;509898;28;1327;-75
2023/06/26 01:11:41;;;;;;;5.80;5.30;;;;;;;;;;509479;28;1414;-75
2023/06/26 01:12:39;;;;;;;5.78;5.25;;;;;;;;;;505637;28;1401;-74
2023/06/26 01:12:40;;;;;;;5.93;5.32;;;;;;;;;;510721;28;1276;-74
2023/06/26 01:12:58;;;;;;;5.78;5.18;;;;;;;;;;511487;28;1570;-75
2023/06/26 01:13:34;;;;;;;5.80;5.30;;;;;;;;;;512698;28;1532;-74
2023/06/26 01:13:53;;;;;;;5.45;5.00;;;;;;;;;;510082;28;1432;-75
2023/06/26 01:14:09;;;;;;;5.78;5.25;;;;;;;;;;509304;28;1416;-75
2023/06/26 01:14:26;;;;;;;6.07;5.47;;;;;;;;;;506177;28;1393;-74
2023/06/26 01:14:48;;;;;;;6.00;5.40;;;;;;;;;;507370;28;1115;-75
2023/06/26 01:15:13;;;;;;;5.97;5.38;;;;;;;;;;507226;28;1389;-74
2023/06/26 01:15:46;;;;;;;6.00;5.40;;;;;;;;;;507418;28;1337;-75
2023/06/26 01:16:04;;;;;;;5.61;5.11;;;;;;;;;;169065;28;10000713;-74
2023/06/26 01:16:21;;;;;;;5.30;4.75;;;;;;;;;;511619;28;1354;-73
2023/06/26 01:16:48;;;;;;;5.78;5.20;;;;;;;;;;510099;28;1344;-74
2023/06/26 01:17:15;;;;;;;6.10;5.55;;;;;;;;;;508872;28;1023;-75
2023/06/26 01:17:35;;;;;;;5.78;5.18;;;;;;;;;;508690;28;1360;-74
2023/06/26 01:17:51;;;;;;;5.53;5.00;;;;;;;;;;507133;28;1452;-75
2023/06/26 01:18:10;;;;;;;5.45;4.95;;;;;;;;;;511119;28;1607;-74
2023/06/26 01:18:27;;;;;;;5.63;5.13;;;;;;;;;;509314;28;1279;-74
2023/06/26 01:18:51;;;;;;;5.80;5.30;;;;;;;;;;509410;28;1546;-74
2023/06/26 01:19:19;;;;;;;5.65;5.15;;;;;;;;;;509113;28;1327;-74
2023/06/26 01:19:48;;;;;;;;;;;;;;;;;;;;;
2023/06/26 01:20:09;;;;;;;5.97;5.20;;;;;;;;;;511053;28;1016;-74
2023/06/26 01:20:27;;;;;;;6.28;5.20;;;;;;;;;;507979;28;1328;-75
2023/06/26 01:20:50;;;;;;;5.95;5.30;;;;;;;;;;508399;28;1363;-74
2023/06/26 01:21:18;;;;;;;5.65;5.15;;;;;;;;;;510925;28;1280;-73
2023/06/26 01:21:40;;;;;;;5.60;5.10;;;;;;;;;;511088;28;1501;-74
2023/06/26 01:22:34;;;;;;;5.90;5.40;;;;;;;;;;506651;28;1316;-74
2023/06/26 01:23:23;;;;;;;5.93;4.97;;;;;;;;;;504280;28;1256;-74
2023/06/26 01:24:14;;;;;;;6.05;5.30;;;;;;;;;;502539;28;1607;-75
2023/06/26 01:24:37;;;;;;;5.50;5.00;;;;;;;;;;501655;28;1008;-74
2023/06/26 01:25:18;;;;;;;5.70;5.20;;;;;;;;;;498923;28;1582;-74
2023/06/26 01:25:52;;;;;;;6.45;5.50;;;;;;;;;;501055;28;1682;-74
2023/06/26 01:26:07;;;;;;;5.83;5.23;;;;;;;;;;504739;28;1449;-74
2023/06/26 01:26:29;;;;;;;6.90;5.63;;;;;;;;;;505139;28;1340;-74
2023/06/26 01:26:51;;;;;;;6.05;5.03;;;;;;;;;;507007;28;1378;-74
2023/06/26 01:27:08;;;;;;;5.68;5.18;;;;;;;;;;505889;28;1483;-75
2023/06/26 01:27:26;;;;;;;5.95;5.35;;;;;;;;;;504589;28;1340;-74
2023/06/26 01:27:48;;;;;;;6.72;5.50;;;;;;;;;;507659;28;1074;-73
2023/06/26 01:28:16;;;;;;;6.18;5.47;;;;;;;;;;508390;28;1550;-73
2023/06/26 01:28:38;;;;;;;5.88;5.38;;;;;;;;;;504946;28;1150;-74
2023/06/26 01:28:58;;;;;;;5.63;5.10;;;;;;;;;;505867;28;1603;-74
2023/06/26 01:29:18;;;;;;;6.18;5.38;;;;;;;;;;504995;28;1566;-75
2023/06/26 01:29:36;;;;;;;6.28;5.28;;;;;;;;;;505399;28;990;-74
2023/06/26 01:30:18;;;;;;;5.85;5.32;;;;;;;;;;503741;28;1320;-73
2023/06/26 01:30:40;;;;;;;6.45;5.60;;;;;;;;;;502017;28;1320;-74
2023/06/26 01:30:57;;;;;;;5.90;5.30;;;;;;;;;;506370;28;1428;-74
2023/06/26 01:31:15;;;;;;;5.95;5.35;;;;;;;;;;506313;28;1462;-75
2023/06/26 01:31:40;;;;;;;6.10;5.50;;;;;;;;;;503419;28;1407;-75
2023/06/26 01:31:57;;;;;;;5.53;5.00;;;;;;;;;;503728;28;1179;-74
2023/06/26 01:32:16;;;;;;;5.65;5.15;;;;;;;;;;502197;28;1424;-75
2023/06/26 01:32:52;;;;;;;5.70;5.05;;;;;;;;;;501962;28;1126;-75
2023/06/26 01:33:50;;;;;;;6.47;5.55;;;;;;;;;;503069;28;1426;-75
2023/06/26 01:34:12;;;;;;;5.82;5.32;;;;;;;;;;501030;28;1225;-75
2023/06/26 01:34:30;;;;;;;5.90;5.20;;;;;;;;;;508244;28;1311;-74
2023/06/26 01:34:48;;;;;;;6.28;5.20;;;;;;;;;;506529;28;1357;-75
2023/06/26 01:35:18;;;;;;;5.60;5.10;;;;;;;;;;505825;28;1555;-75
2023/06/26 01:35:44;;;;;;;5.70;5.20;;;;;;;;;;509445;28;1312;-74
2023/06/26 01:36:01;;;;;;;5.93;5.13;;;;;;;;;;507754;28;1476;-74
2023/06/26 01:36:21;;;;;;;5.60;5.00;;;;;;;;;;507804;28;1375;-74
2023/06/26 01:36:38;;;;;;;5.43;4.93;;;;;;;;;;507570;28;1322;-74
2023/06/26 01:36:54;;;;;;;5.60;5.10;;;;;;;;;;505219;28;1323;-75
2023/06/26 01:37:11;;;;;;;5.78;5.22;;;;;;;;;;507004;28;1335;-75
2023/06/26 01:37:30;;;;;;;5.75;5.25;;;;;;;;;;506815;28;1481;-74
2023/06/26 01:37:52;;;;;;;5.63;5.07;;;;;;;;;;506181;28;1494;-74
2023/06/26 01:38:20;;;;;;;6.18;5.30;;;;;;;;;;504732;28;1482;-74
2023/06/26 01:38:37;;;;;;;5.72;5.22;;;;;;;;;;503059;28;1175;-74
2023/06/26 01:38:54;;;;;;;6.10;5.10;;;;;;;;;;504309;28;1506;-74
2023/06/26 01:39:11;;;;;;;6.10;5.00;;;;;;;;;;505296;28;1257;-73
2023/06/26 01:39:27;;;;;;;6.03;5.32;;;;;;;;;;505769;28;1312;-75
2023/06/26 01:39:47;;;;;;;5.80;5.20;;;;;;;;;;508846;28;1466;-74
2023/06/26 01:40:07;;;;;;;5.82;5.00;;;;;;;;;;508816;28;1234;-74
2023/06/26 01:40:24;;;;;;;6.63;5.50;;;;;;;;;;506824;28;1394;-75
2023/06/26 01:40:40;;;;;;;6.13;5.53;;;;;;;;;;511505;28;1370;-74
2023/06/26 01:40:59;;;;;;;6.20;5.60;;;;;;;;;;508153;28;1269;-75
2023/06/26 01:41:15;;;;;;;5.60;5.10;;;;;;;;;;504976;28;1940;-74
2023/06/26 01:41:41;;;;;;;5.57;5.07;;;;;;;;;;506321;28;1597;-74
2023/06/26 01:41:57;;;;;;;5.55;5.05;;;;;;;;;;504866;28;1043;-74
2023/06/26 01:42:13;;;;;;;5.83;5.13;;;;;;;;;;504881;28;1351;-73
2023/06/26 01:42:30;;;;;;;6.75;5.30;;;;;;;;;;504907;28;1045;-75
2023/06/26 01:42:47;;;;;;;7.82;5.30;;;;;;;;;;505258;28;1508;-75
2023/06/26 01:43:04;;;;;;;6.60;5.25;;;;;;;;;;507228;28;1462;-74
2023/06/26 01:43:58;;;;;;;5.68;5.18;;;;;;;;;;507891;28;1248;-74
2023/06/26 01:44:44;;;;;;;5.93;5.20;;;;;;;;;;508354;28;1279;-74
2023/06/26 01:45:10;;;;;;;5.80;5.20;;;;;;;;;;508293;28;1375;-74
2023/06/26 01:45:29;;;;;;;5.90;5.30;;;;;;;;;;511287;28;1310;-75
2023/06/26 01:45:48;;;;;;;5.85;5.20;;;;;;;;;;508479;28;1200;-74
2023/06/26 01:46:48;;;;;;;6.72;5.20;;;;;;;;;;509192;28;1124;-75
2023/06/26 01:47:20;;;;;;;5.72;4.90;;;;;;;;;;503056;28;1331;-74
2023/06/26 01:47:43;;;;;;;5.90;5.30;;;;;;;;;;500924;28;1336;-74
2023/06/26 01:48:08;;;;;;;5.78;5.18;;;;;;;;;;506439;28;1381;-75
2023/06/26 01:48:31;;;;;;;6.13;5.30;;;;;;;;;;505806;28;1360;-75
2023/06/26 01:49:01;;;;;;;6.20;5.60;;;;;;;;;;504628;28;1316;-75
2023/06/26 01:49:31;;;;;;;7.38;5.20;;;;;;;;;;502568;28;1470;-74
2023/06/26 01:49:54;;;;;;;5.57;5.00;;;;;;;;;;505080;28;1262;-74
2023/06/26 01:50:22;;;;;;;5.90;5.30;;;;;;;;;;504620;28;1557;-74
2023/06/26 01:50:45;;;;;;;6.85;5.30;;;;;;;;;;507218;28;1659;-76
2023/06/26 01:51:03;;;;;;;6.05;5.30;;;;;;;;;;510492;28;1554;-74
2023/06/26 01:51:35;;;;;;;5.70;5.20;;;;;;;;;;510677;28;1595;-74
2023/06/26 01:52:10;;;;;;;6.13;5.00;;;;;;;;;;505077;28;1410;-75
2023/06/26 01:52:36;;;;;;;5.70;5.10;;;;;;;;;;505623;28;1477;-74
2023/06/26 01:53:09;;;;;;;5.93;5.35;;;;;;;;;;507479;28;1408;-74
2023/06/26 01:53:41;;;;;;;6.20;5.60;;;;;;;;;;508113;28;1271;-75
2023/06/26 01:54:00;;;;;;;5.47;4.97;;;;;;;;;;507072;28;1545;-74
2023/06/26 01:54:23;;;;;;;5.72;5.15;;;;;;;;;;506759;28;1376;-74
2023/06/26 01:54:47;;;;;;;5.70;5.20;;;;;;;;;;506455;28;1702;-74
2023/06/26 01:55:09;;;;;;;5.65;5.15;;;;;;;;;;505602;28;1019;-75
2023/06/26 01:55:36;;;;;;;5.35;4.85;;;;;;;;;;504840;28;1435;-74
2023/06/26 01:56:01;;;;;;;5.50;5.00;;;;;;;;;;504679;28;1114;-74
2023/06/26 01:56:19;;;;;;;5.80;5.20;;;;;;;;;;508553;28;1150;-74
2023/06/26 01:56:38;;;;;;;5.80;5.20;;;;;;;;;;510640;28;1418;-75
2023/06/26 01:57:18;;;;;;;6.00;5.40;;;;;;;;;;510594;28;1188;-75
2023/06/26 01:57:36;;;;;;;6.05;5.22;;;;;;;;;;512071;28;1306;-75
2023/06/26 01:57:57;;;;;;;5.60;5.00;;;;;;;;;;509828;28;1556;-74
2023/06/26 01:58:16;;;;;;;6.00;5.22;;;;;;;;;;508076;28;1908;-75
2023/06/26 01:58:34;;;;;;;6.25;5.25;;;;;;;;;;508626;28;1499;-75
2023/06/26 01:58:54;;;;;;;5.78;5.18;;;;;;;;;;506905;28;1360;-74
2023/06/26 01:59:18;;;;;;;5.80;5.20;;;;;;;;;;506425;28;1166;-75
2023/06/26 01:59:41;;;;;;;5.72;5.10;;;;;;;;;;507710;28;1189;-74
2023/06/26 02:00:14;;;;;;;7.07;5.15;;;;;;;;;;506875;28;1484;-74
2023/06/26 02:00:32;;;;;;;6.00;5.40;;;;;;;;;;510309;28;1005;-75
2023/06/26 02:01:01;;;;;;;;;;;;;;;;;;;;;
2023/06/26 02:01:18;;;;;;;5.63;5.13;;;;;;;;;;512106;28;1950;-75
2023/06/26 02:01:38;;;;;;;5.22;4.82;;;;;;;;;;510762;28;1156;-74
2023/06/26 02:01:55;;;;;;;5.45;4.95;;;;;;;;;;509256;28;1497;-74
2023/06/26 02:02:11;;;;;;;5.63;5.13;;;;;;;;;;508298;28;1435;-74
2023/06/26 02:02:30;;;;;;;5.60;5.10;;;;;;;;;;508111;28;1230;-75
2023/06/26 02:02:56;;;;;;;6.40;5.50;;;;;;;;;;508383;28;1288;-74
2023/06/26 02:03:12;;;;;;;6.13;5.53;;;;;;;;;;506999;28;1503;-75
2023/06/26 02:03:30;;;;;;;6.18;5.30;;;;;;;;;;506296;28;1351;-74
2023/06/26 02:04:11;;;;;;;6.43;5.32;;;;;;;;;;507255;28;1542;-74
2023/06/26 02:04:30;;;;;;;5.60;5.10;;;;;;;;;;507921;28;1272;-75
2023/06/26 02:05:06;;;;;;;5.68;5.10;;;;;;;;;;508581;28;1315;-74
2023/06/26 02:05:29;;;;;;;6.30;5.25;;;;;;;;;;507233;28;1497;-74
2023/06/26 02:05:52;;;;;;;5.57;5.07;;;;;;;;;;510434;28;1563;-74
2023/06/26 02:06:09;;;;;;;6.25;5.65;;;;;;;;;;508253;28;1375;-74
2023/06/26 02:06:54;;;;;;;6.13;5.53;;;;;;;;;;507888;28;1373;-75
2023/06/26 02:07:14;;;;;;;5.65;5.15;;;;;;;;;;503932;28;1561;-75
2023/06/26 02:07:30;;;;;;;5.70;5.13;;;;;;;;;;505186;28;1509;-74
2023/06/26 02:07:52;;;;;;;5.70;5.10;;;;;;;;;;506784;28;1480;-75
2023/06/26 02:08:12;;;;;;;5.70;5.15;;;;;;;;;;509196;28;947;-74
2023/06/26 02:08:28;;;;;;;6.15;5.55;;;;;;;;;;510263;28;1596;-75
2023/06/26 02:08:44;;;;;;;5.85;5.35;;;;;;;;;;509825;28;1338;-75
2023/06/26 02:09:02;;;;;;;6.07;5.20;;;;;;;;;;507261;28;1397;-74